sensor_id;sensor_type;location;lat;lon;timestamp;temperature;humidity
9271;DHT22;4673;53.458;9.940;2023-02-02T00:01:11;4.90;96.70
9271;DHT22;4673;53.458;9.940;2023-02-02T00:03:36;5.00;96.80
9271;DHT22;4673;53.458;9.940;2023-02-02T00:06:03;5.00;96.70
9271;DHT22;4673;53.458;9.940;2023-02-02T00:08:28;5.00;96.20
9271;DHT22;4673;53.458;9.940;2023-02-02T00:10:54;4.90;95.80
9271;DHT22;4673;53.458;9.940;2023-02-02T00:13:20;4.90;95.70
9271;DHT22;4673;53.458;9.940;2023-02-02T00:15:45;4.90;95.40
9271;DHT22;4673;53.458;9.940;2023-02-02T00:18:11;4.90;95.40
9271;DHT22;4673;53.458;9.940;2023-02-02T00:20:37;4.90;95.20
9271;DHT22;4673;53.458;9.940;2023-02-02T00:23:03;4.90;94.50
9271;DHT22;4673;53.458;9.940;2023-02-02T00:25:29;4.90;94.20
9271;DHT22;4673;53.458;9.940;2023-02-02T00:27:55;5.00;94.70
9271;DHT22;4673;53.458;9.940;2023-02-02T00:30:21;5.00;94.80
9271;DHT22;4673;53.458;9.940;2023-02-02T00:32:46;5.00;95.10
9271;DHT22;4673;53.458;9.940;2023-02-02T00:35:16;4.90;95.00
9271;DHT22;4673;53.458;9.940;2023-02-02T00:37:41;4.90;95.30
9271;DHT22;4673;53.458;9.940;2023-02-02T00:40:08;5.20;95.70
9271;DHT22;4673;53.458;9.940;2023-02-02T00:42:34;5.00;95.70
9271;DHT22;4673;53.458;9.940;2023-02-02T00:44:59;4.90;95.70
9271;DHT22;4673;53.458;9.940;2023-02-02T00:47:41;4.90;95.90
9271;DHT22;4673;53.458;9.940;2023-02-02T00:50:09;4.90;96.50
9271;DHT22;4673;53.458;9.940;2023-02-02T00:52:34;4.80;96.60
9271;DHT22;4673;53.458;9.940;2023-02-02T00:55:00;4.90;97.10
9271;DHT22;4673;53.458;9.940;2023-02-02T00:57:26;4.70;97.50
9271;DHT22;4673;53.458;9.940;2023-02-02T00:59:51;4.70;98.10
9271;DHT22;4673;53.458;9.940;2023-02-02T01:02:17;4.60;98.70
9271;DHT22;4673;53.458;9.940;2023-02-02T01:04:42;4.60;99.10
9271;DHT22;4673;53.458;9.940;2023-02-02T01:07:08;4.60;99.80
9271;DHT22;4673;53.458;9.940;2023-02-02T01:09:34;4.60;99.50
9271;DHT22;4673;53.458;9.940;2023-02-02T01:11:59;4.60;99.80
9271;DHT22;4673;53.458;9.940;2023-02-02T01:14:25;4.60;99.90
9271;DHT22;4673;53.458;9.940;2023-02-02T01:16:51;4.50;99.90
9271;DHT22;4673;53.458;9.940;2023-02-02T01:19:17;4.50;99.90
9271;DHT22;4673;53.458;9.940;2023-02-02T01:21:42;4.60;99.90
9271;DHT22;4673;53.458;9.940;2023-02-02T01:24:08;4.50;99.90
9271;DHT22;4673;53.458;9.940;2023-02-02T01:26:34;4.50;99.90
9271;DHT22;4673;53.458;9.940;2023-02-02T01:29:00;4.50;99.90
9271;DHT22;4673;53.458;9.940;2023-02-02T01:31:25;4.50;99.90
9271;DHT22;4673;53.458;9.940;2023-02-02T01:33:51;4.50;99.90
9271;DHT22;4673;53.458;9.940;2023-02-02T01:36:20;4.50;99.90
9271;DHT22;4673;53.458;9.940;2023-02-02T01:38:47;4.50;99.90
9271;DHT22;4673;53.458;9.940;2023-02-02T01:41:18;4.50;99.90
9271;DHT22;4673;53.458;9.940;2023-02-02T01:46:33;4.60;99.90
9271;DHT22;4673;53.458;9.940;2023-02-02T01:49:25;4.60;99.90
9271;DHT22;4673;53.458;9.940;2023-02-02T01:51:58;4.70;99.90
9271;DHT22;4673;53.458;9.940;2023-02-02T01:54:28;4.60;99.90
9271;DHT22;4673;53.458;9.940;2023-02-02T01:56:59;4.60;99.90
9271;DHT22;4673;53.458;9.940;2023-02-02T01:59:27;4.80;99.90
9271;DHT22;4673;53.458;9.940;2023-02-02T02:01:54;4.70;99.90
9271;DHT22;4673;53.458;9.940;2023-02-02T02:04:21;4.80;99.90
9271;DHT22;4673;53.458;9.940;2023-02-02T02:06:47;4.80;99.90
9271;DHT22;4673;53.458;9.940;2023-02-02T02:09:15;4.80;99.90
9271;DHT22;4673;53.458;9.940;2023-02-02T02:11:41;4.80;99.90
9271;DHT22;4673;53.458;9.940;2023-02-02T02:14:08;4.80;99.90
9271;DHT22;4673;53.458;9.940;2023-02-02T02:23:42;4.70;99.90
9271;DHT22;4673;53.458;9.940;2023-02-02T02:26:21;4.70;99.90
9271;DHT22;4673;53.458;9.940;2023-02-02T02:39:56;4.70;99.90
9271;DHT22;4673;53.458;9.940;2023-02-02T02:42:25;4.70;99.90
9271;DHT22;4673;53.458;9.940;2023-02-02T02:44:52;4.70;99.90
9271;DHT22;4673;53.458;9.940;2023-02-02T02:47:20;4.80;99.90
9271;DHT22;4673;53.458;9.940;2023-02-02T02:49:47;4.80;99.90
9271;DHT22;4673;53.458;9.940;2023-02-02T02:52:13;4.80;99.90
9271;DHT22;4673;53.458;9.940;2023-02-02T02:54:55;4.80;99.90
9271;DHT22;4673;53.458;9.940;2023-02-02T02:58:04;4.80;99.90
9271;DHT22;4673;53.458;9.940;2023-02-02T03:06:09;4.70;99.90
9271;DHT22;4673;53.458;9.940;2023-02-02T03:08:42;4.70;99.90
9271;DHT22;4673;53.458;9.940;2023-02-02T03:11:12;4.70;99.90
9271;DHT22;4673;53.458;9.940;2023-02-02T03:13:39;4.70;99.90
9271;DHT22;4673;53.458;9.940;2023-02-02T03:16:06;4.80;99.90
9271;DHT22;4673;53.458;9.940;2023-02-02T03:18:32;4.80;99.90
9271;DHT22;4673;53.458;9.940;2023-02-02T03:20:58;4.70;99.90
9271;DHT22;4673;53.458;9.940;2023-02-02T03:23:24;4.70;99.90
9271;DHT22;4673;53.458;9.940;2023-02-02T03:25:50;4.70;99.90
9271;DHT22;4673;53.458;9.940;2023-02-02T03:28:16;4.60;99.90
9271;DHT22;4673;53.458;9.940;2023-02-02T03:30:43;4.70;99.90
9271;DHT22;4673;53.458;9.940;2023-02-02T03:33:12;4.70;99.90
9271;DHT22;4673;53.458;9.940;2023-02-02T03:35:38;4.70;99.90
9271;DHT22;4673;53.458;9.940;2023-02-02T03:38:04;4.70;99.90
9271;DHT22;4673;53.458;9.940;2023-02-02T03:40:30;4.70;99.90
9271;DHT22;4673;53.458;9.940;2023-02-02T03:42:56;4.70;99.90
9271;DHT22;4673;53.458;9.940;2023-02-02T03:45:21;4.60;99.90
9271;DHT22;4673;53.458;9.940;2023-02-02T03:47:47;4.60;99.90
9271;DHT22;4673;53.458;9.940;2023-02-02T03:50:13;4.60;99.90
9271;DHT22;4673;53.458;9.940;2023-02-02T03:52:39;4.60;99.90
9271;DHT22;4673;53.458;9.940;2023-02-02T03:55:05;4.60;99.90
9271;DHT22;4673;53.458;9.940;2023-02-02T03:57:31;4.60;99.90
9271;DHT22;4673;53.458;9.940;2023-02-02T03:59:57;4.60;99.90
9271;DHT22;4673;53.458;9.940;2023-02-02T04:02:22;4.80;99.90
9271;DHT22;4673;53.458;9.940;2023-02-02T04:04:48;4.60;99.90
9271;DHT22;4673;53.458;9.940;2023-02-02T04:07:14;4.70;99.90
9271;DHT22;4673;53.458;9.940;2023-02-02T04:09:39;4.50;99.90
9271;DHT22;4673;53.458;9.940;2023-02-02T04:12:05;4.40;99.90
9271;DHT22;4673;53.458;9.940;2023-02-02T04:14:31;4.40;99.90
9271;DHT22;4673;53.458;9.940;2023-02-02T04:16:56;4.40;99.90
9271;DHT22;4673;53.458;9.940;2023-02-02T04:19:22;4.40;99.90
9271;DHT22;4673;53.458;9.940;2023-02-02T04:21:48;4.40;99.90
9271;DHT22;4673;53.458;9.940;2023-02-02T04:24:14;4.40;99.90
9271;DHT22;4673;53.458;9.940;2023-02-02T04:26:40;4.40;99.90
9271;DHT22;4673;53.458;9.940;2023-02-02T04:29:06;4.40;99.90
9271;DHT22;4673;53.458;9.940;2023-02-02T04:31:32;4.40;99.90
9271;DHT22;4673;53.458;9.940;2023-02-02T04:33:58;4.50;99.90
9271;DHT22;4673;53.458;9.940;2023-02-02T04:36:24;4.50;99.90
9271;DHT22;4673;53.458;9.940;2023-02-02T04:38:51;4.40;99.90
9271;DHT22;4673;53.458;9.940;2023-02-02T04:41:18;4.40;99.90
9271;DHT22;4673;53.458;9.940;2023-02-02T04:43:44;4.40;99.90
9271;DHT22;4673;53.458;9.940;2023-02-02T04:46:10;4.40;99.90
9271;DHT22;4673;53.458;9.940;2023-02-02T04:48:36;4.40;99.90
9271;DHT22;4673;53.458;9.940;2023-02-02T04:51:05;4.40;99.90
9271;DHT22;4673;53.458;9.940;2023-02-02T04:53:31;4.40;99.90
9271;DHT22;4673;53.458;9.940;2023-02-02T04:56:03;4.40;99.90
9271;DHT22;4673;53.458;9.940;2023-02-02T04:58:29;4.40;99.90
9271;DHT22;4673;53.458;9.940;2023-02-02T05:00:54;4.40;99.90
9271;DHT22;4673;53.458;9.940;2023-02-02T05:03:20;4.50;99.90
9271;DHT22;4673;53.458;9.940;2023-02-02T05:05:45;4.50;99.90
9271;DHT22;4673;53.458;9.940;2023-02-02T05:08:11;4.60;99.90
9271;DHT22;4673;53.458;9.940;2023-02-02T05:10:39;4.60;99.90
9271;DHT22;4673;53.458;9.940;2023-02-02T05:13:06;4.50;99.90
9271;DHT22;4673;53.458;9.940;2023-02-02T05:15:32;4.60;99.90
9271;DHT22;4673;53.458;9.940;2023-02-02T05:17:58;4.60;99.90
9271;DHT22;4673;53.458;9.940;2023-02-02T05:20:24;4.50;99.90
9271;DHT22;4673;53.458;9.940;2023-02-02T05:22:49;4.50;99.90
9271;DHT22;4673;53.458;9.940;2023-02-02T05:25:15;4.40;99.90
9271;DHT22;4673;53.458;9.940;2023-02-02T05:27:43;4.50;99.90
9271;DHT22;4673;53.458;9.940;2023-02-02T05:30:11;4.50;99.90
9271;DHT22;4673;53.458;9.940;2023-02-02T05:32:36;4.50;99.90
9271;DHT22;4673;53.458;9.940;2023-02-02T05:35:02;4.50;99.90
9271;DHT22;4673;53.458;9.940;2023-02-02T05:37:28;4.60;99.90
9271;DHT22;4673;53.458;9.940;2023-02-02T05:39:53;4.60;99.90
9271;DHT22;4673;53.458;9.940;2023-02-02T05:42:19;4.60;99.90
9271;DHT22;4673;53.458;9.940;2023-02-02T05:44:45;4.70;99.90
9271;DHT22;4673;53.458;9.940;2023-02-02T05:47:10;4.60;99.90
9271;DHT22;4673;53.458;9.940;2023-02-02T05:49:36;4.60;99.90
9271;DHT22;4673;53.458;9.940;2023-02-02T05:52:02;4.70;99.90
9271;DHT22;4673;53.458;9.940;2023-02-02T05:54:27;4.70;99.90
9271;DHT22;4673;53.458;9.940;2023-02-02T05:56:53;4.70;99.90
9271;DHT22;4673;53.458;9.940;2023-02-02T05:59:20;4.70;99.90
9271;DHT22;4673;53.458;9.940;2023-02-02T06:01:46;4.70;99.90
9271;DHT22;4673;53.458;9.940;2023-02-02T06:04:13;4.70;99.90
9271;DHT22;4673;53.458;9.940;2023-02-02T06:06:39;4.70;99.90
9271;DHT22;4673;53.458;9.940;2023-02-02T06:09:05;4.70;99.90
9271;DHT22;4673;53.458;9.940;2023-02-02T06:11:31;4.70;99.90
9271;DHT22;4673;53.458;9.940;2023-02-02T06:13:57;4.70;99.90
9271;DHT22;4673;53.458;9.940;2023-02-02T06:16:23;4.80;99.90
9271;DHT22;4673;53.458;9.940;2023-02-02T06:18:49;4.70;99.90
9271;DHT22;4673;53.458;9.940;2023-02-02T06:21:15;4.70;99.90
9271;DHT22;4673;53.458;9.940;2023-02-02T06:23:41;4.70;99.90
9271;DHT22;4673;53.458;9.940;2023-02-02T06:26:11;4.70;99.90
9271;DHT22;4673;53.458;9.940;2023-02-02T06:28:47;4.70;99.90
9271;DHT22;4673;53.458;9.940;2023-02-02T06:31:13;4.70;99.90
9271;DHT22;4673;53.458;9.940;2023-02-02T06:33:46;4.70;99.90
9271;DHT22;4673;53.458;9.940;2023-02-02T06:36:12;4.60;99.90
9271;DHT22;4673;53.458;9.940;2023-02-02T06:38:37;4.60;99.90
9271;DHT22;4673;53.458;9.940;2023-02-02T06:41:03;4.60;99.90
9271;DHT22;4673;53.458;9.940;2023-02-02T06:43:31;4.60;99.90
9271;DHT22;4673;53.458;9.940;2023-02-02T06:45:57;4.60;99.90
9271;DHT22;4673;53.458;9.940;2023-02-02T06:50:51;4.70;99.90
9271;DHT22;4673;53.458;9.940;2023-02-02T06:53:18;4.70;99.90
9271;DHT22;4673;53.458;9.940;2023-02-02T06:55:58;4.70;99.90
9271;DHT22;4673;53.458;9.940;2023-02-02T06:58:25;4.60;99.90
9271;DHT22;4673;53.458;9.940;2023-02-02T07:00:51;4.60;99.90
9271;DHT22;4673;53.458;9.940;2023-02-02T07:03:17;4.70;99.90
9271;DHT22;4673;53.458;9.940;2023-02-02T07:05:45;4.60;99.90
9271;DHT22;4673;53.458;9.940;2023-02-02T07:08:11;4.60;99.90
9271;DHT22;4673;53.458;9.940;2023-02-02T07:10:37;4.70;99.90
9271;DHT22;4673;53.458;9.940;2023-02-02T07:13:03;4.70;99.90
9271;DHT22;4673;53.458;9.940;2023-02-02T07:15:34;4.80;99.90
9271;DHT22;4673;53.458;9.940;2023-02-02T07:18:02;4.60;99.90
9271;DHT22;4673;53.458;9.940;2023-02-02T07:20:28;4.60;99.90
9271;DHT22;4673;53.458;9.940;2023-02-02T07:22:53;4.60;99.90
9271;DHT22;4673;53.458;9.940;2023-02-02T07:25:19;4.60;99.90
9271;DHT22;4673;53.458;9.940;2023-02-02T07:27:45;4.70;99.90
9271;DHT22;4673;53.458;9.940;2023-02-02T07:30:12;4.50;99.90
9271;DHT22;4673;53.458;9.940;2023-02-02T07:32:38;4.50;99.90
9271;DHT22;4673;53.458;9.940;2023-02-02T07:35:04;4.50;99.90
9271;DHT22;4673;53.458;9.940;2023-02-02T07:37:30;4.60;99.90
9271;DHT22;4673;53.458;9.940;2023-02-02T07:39:56;4.60;99.90
9271;DHT22;4673;53.458;9.940;2023-02-02T07:42:21;4.60;99.90
9271;DHT22;4673;53.458;9.940;2023-02-02T07:44:47;4.60;99.90
9271;DHT22;4673;53.458;9.940;2023-02-02T07:47:12;4.50;99.90
9271;DHT22;4673;53.458;9.940;2023-02-02T07:49:38;4.50;99.90
9271;DHT22;4673;53.458;9.940;2023-02-02T07:52:04;4.50;99.90
9271;DHT22;4673;53.458;9.940;2023-02-02T07:54:30;4.60;99.90
9271;DHT22;4673;53.458;9.940;2023-02-02T07:56:56;4.60;99.90
9271;DHT22;4673;53.458;9.940;2023-02-02T07:59:22;4.70;99.90
9271;DHT22;4673;53.458;9.940;2023-02-02T08:01:48;4.70;99.90
9271;DHT22;4673;53.458;9.940;2023-02-02T08:04:13;4.70;99.90
9271;DHT22;4673;53.458;9.940;2023-02-02T08:06:40;4.60;99.90
9271;DHT22;4673;53.458;9.940;2023-02-02T08:09:07;4.60;99.90
9271;DHT22;4673;53.458;9.940;2023-02-02T08:11:35;4.60;99.90
9271;DHT22;4673;53.458;9.940;2023-02-02T08:14:03;4.60;99.90
9271;DHT22;4673;53.458;9.940;2023-02-02T08:16:30;4.60;99.90
9271;DHT22;4673;53.458;9.940;2023-02-02T08:18:56;4.50;99.90
9271;DHT22;4673;53.458;9.940;2023-02-02T08:21:23;4.50;99.90
9271;DHT22;4673;53.458;9.940;2023-02-02T08:23:50;4.60;99.90
9271;DHT22;4673;53.458;9.940;2023-02-02T08:26:25;4.70;99.90
9271;DHT22;4673;53.458;9.940;2023-02-02T08:28:54;4.70;99.90
9271;DHT22;4673;53.458;9.940;2023-02-02T08:31:23;4.70;99.90
9271;DHT22;4673;53.458;9.940;2023-02-02T08:33:50;4.70;99.90
9271;DHT22;4673;53.458;9.940;2023-02-02T08:36:18;4.70;99.90
9271;DHT22;4673;53.458;9.940;2023-02-02T08:38:44;4.70;99.90
9271;DHT22;4673;53.458;9.940;2023-02-02T08:41:12;4.60;99.90
9271;DHT22;4673;53.458;9.940;2023-02-02T08:43:39;4.60;99.90
9271;DHT22;4673;53.458;9.940;2023-02-02T08:46:07;4.60;99.90
9271;DHT22;4673;53.458;9.940;2023-02-02T08:48:34;4.80;99.90
9271;DHT22;4673;53.458;9.940;2023-02-02T08:51:00;4.90;99.90
9271;DHT22;4673;53.458;9.940;2023-02-02T08:53:26;4.80;99.90
9271;DHT22;4673;53.458;9.940;2023-02-02T08:56:14;4.80;99.90
9271;DHT22;4673;53.458;9.940;2023-02-02T08:58:45;4.90;99.90
9271;DHT22;4673;53.458;9.940;2023-02-02T09:01:13;5.10;99.90
9271;DHT22;4673;53.458;9.940;2023-02-02T09:03:40;5.10;99.90
9271;DHT22;4673;53.458;9.940;2023-02-02T09:06:08;5.10;99.90
9271;DHT22;4673;53.458;9.940;2023-02-02T09:08:34;5.10;99.80
9271;DHT22;4673;53.458;9.940;2023-02-02T09:11:07;5.10;98.70
9271;DHT22;4673;53.458;9.940;2023-02-02T09:13:35;5.10;99.30
9271;DHT22;4673;53.458;9.940;2023-02-02T09:16:02;5.10;99.60
9271;DHT22;4673;53.458;9.940;2023-02-02T09:18:28;5.10;99.10
9271;DHT22;4673;53.458;9.940;2023-02-02T09:20:54;5.20;98.90
9271;DHT22;4673;53.458;9.940;2023-02-02T09:23:23;5.20;97.70
9271;DHT22;4673;53.458;9.940;2023-02-02T09:25:50;5.30;97.60
9271;DHT22;4673;53.458;9.940;2023-02-02T09:28:16;5.50;98.10
9271;DHT22;4673;53.458;9.940;2023-02-02T09:30:42;5.80;97.40
9271;DHT22;4673;53.458;9.940;2023-02-02T09:33:08;5.70;96.30
9271;DHT22;4673;53.458;9.940;2023-02-02T09:35:34;5.70;96.00
9271;DHT22;4673;53.458;9.940;2023-02-02T09:37:59;5.70;95.00
9271;DHT22;4673;53.458;9.940;2023-02-02T09:40:25;5.70;94.40
9271;DHT22;4673;53.458;9.940;2023-02-02T09:43:00;5.60;94.40
9271;DHT22;4673;53.458;9.940;2023-02-02T09:45:38;5.60;94.90
9271;DHT22;4673;53.458;9.940;2023-02-02T09:48:22;5.70;94.60
9271;DHT22;4673;53.458;9.940;2023-02-02T09:51:15;5.70;94.40
9271;DHT22;4673;53.458;9.940;2023-02-02T09:53:51;5.80;94.80
9271;DHT22;4673;53.458;9.940;2023-02-02T09:56:30;5.80;94.30
9271;DHT22;4673;53.458;9.940;2023-02-02T09:59:00;5.80;94.80
9271;DHT22;4673;53.458;9.940;2023-02-02T10:01:35;5.90;94.60
9271;DHT22;4673;53.458;9.940;2023-02-02T10:06:41;5.80;93.40
9271;DHT22;4673;53.458;9.940;2023-02-02T10:09:29;5.90;92.50
9271;DHT22;4673;53.458;9.940;2023-02-02T10:17:54;5.90;92.60
9271;DHT22;4673;53.458;9.940;2023-02-02T10:23:02;6.00;90.50
9271;DHT22;4673;53.458;9.940;2023-02-02T10:25:32;6.00;90.40
9271;DHT22;4673;53.458;9.940;2023-02-02T10:28:19;6.10;91.30
9271;DHT22;4673;53.458;9.940;2023-02-02T10:30:59;6.20;90.50
9271;DHT22;4673;53.458;9.940;2023-02-02T10:33:29;6.40;90.20
9271;DHT22;4673;53.458;9.940;2023-02-02T10:38:52;6.30;90.00
9271;DHT22;4673;53.458;9.940;2023-02-02T10:46:52;6.40;87.70
9271;DHT22;4673;53.458;9.940;2023-02-02T10:49:30;6.50;86.80
9271;DHT22;4673;53.458;9.940;2023-02-02T10:55:06;6.70;86.60
9271;DHT22;4673;53.458;9.940;2023-02-02T11:00:24;6.80;84.70
9271;DHT22;4673;53.458;9.940;2023-02-02T11:02:50;7.10;86.00
9271;DHT22;4673;53.458;9.940;2023-02-02T11:05:22;7.10;85.00
9271;DHT22;4673;53.458;9.940;2023-02-02T11:10:51;7.00;85.30
9271;DHT22;4673;53.458;9.940;2023-02-02T11:14:26;7.10;84.10
9271;DHT22;4673;53.458;9.940;2023-02-02T11:16:27;7.10;83.70
9271;DHT22;4673;53.458;9.940;2023-02-02T11:18:53;7.30;84.60
9271;DHT22;4673;53.458;9.940;2023-02-02T11:21:28;7.30;83.50
9271;DHT22;4673;53.458;9.940;2023-02-02T11:26:23;7.20;82.70
9271;DHT22;4673;53.458;9.940;2023-02-02T11:28:51;7.10;83.10
9271;DHT22;4673;53.458;9.940;2023-02-02T11:31:34;7.00;82.70
9271;DHT22;4673;53.458;9.940;2023-02-02T11:34:09;6.90;83.00
9271;DHT22;4673;53.458;9.940;2023-02-02T11:36:38;6.70;81.40
9271;DHT22;4673;53.458;9.940;2023-02-02T11:39:24;6.60;80.80
9271;DHT22;4673;53.458;9.940;2023-02-02T11:41:57;6.50;80.00
9271;DHT22;4673;53.458;9.940;2023-02-02T11:44:27;6.60;81.10
9271;DHT22;4673;53.458;9.940;2023-02-02T11:46:54;6.90;79.70
9271;DHT22;4673;53.458;9.940;2023-02-02T11:49:21;7.00;78.70
9271;DHT22;4673;53.458;9.940;2023-02-02T11:51:59;7.00;78.80
9271;DHT22;4673;53.458;9.940;2023-02-02T11:54:30;7.10;78.70
9271;DHT22;4673;53.458;9.940;2023-02-02T11:57:00;7.30;79.80
9271;DHT22;4673;53.458;9.940;2023-02-02T11:59:50;7.40;78.40
9271;DHT22;4673;53.458;9.940;2023-02-02T12:02:44;7.40;78.30
9271;DHT22;4673;53.458;9.940;2023-02-02T12:05:27;7.50;77.00
9271;DHT22;4673;53.458;9.940;2023-02-02T12:07:56;7.30;76.40
9271;DHT22;4673;53.458;9.940;2023-02-02T12:10:30;7.10;77.10
9271;DHT22;4673;53.458;9.940;2023-02-02T12:15:47;6.90;77.20
9271;DHT22;4673;53.458;9.940;2023-02-02T12:18:34;6.80;77.70
9271;DHT22;4673;53.458;9.940;2023-02-02T12:21:40;6.80;77.00
9271;DHT22;4673;53.458;9.940;2023-02-02T12:26:39;6.70;77.90
9271;DHT22;4673;53.458;9.940;2023-02-02T12:32:03;6.60;77.40
9271;DHT22;4673;53.458;9.940;2023-02-02T12:34:57;6.70;78.30
9271;DHT22;4673;53.458;9.940;2023-02-02T12:38:30;6.90;76.70
9271;DHT22;4673;53.458;9.940;2023-02-02T12:40:57;6.90;76.10
9271;DHT22;4673;53.458;9.940;2023-02-02T12:57:09;7.20;74.40
9271;DHT22;4673;53.458;9.940;2023-02-02T13:02:26;7.10;73.20
9271;DHT22;4673;53.458;9.940;2023-02-02T13:07:48;6.80;75.50
9271;DHT22;4673;53.458;9.940;2023-02-02T13:10:41;6.70;75.50
9271;DHT22;4673;53.458;9.940;2023-02-02T13:13:12;6.70;75.70
9271;DHT22;4673;53.458;9.940;2023-02-02T13:15:46;6.60;75.20
9271;DHT22;4673;53.458;9.940;2023-02-02T13:18:34;6.60;76.40
9271;DHT22;4673;53.458;9.940;2023-02-02T13:21:06;6.50;76.60
9271;DHT22;4673;53.458;9.940;2023-02-02T13:23:36;6.50;76.80
9271;DHT22;4673;53.458;9.940;2023-02-02T13:26:11;6.50;77.30
9271;DHT22;4673;53.458;9.940;2023-02-02T13:28:46;6.50;77.10
9271;DHT22;4673;53.458;9.940;2023-02-02T13:31:23;6.50;77.20
9271;DHT22;4673;53.458;9.940;2023-02-02T13:34:03;6.50;77.70
9271;DHT22;4673;53.458;9.940;2023-02-02T13:36:31;6.40;78.00
9271;DHT22;4673;53.458;9.940;2023-02-02T13:39:11;6.40;77.90
9271;DHT22;4673;53.458;9.940;2023-02-02T13:41:38;6.30;78.40
9271;DHT22;4673;53.458;9.940;2023-02-02T13:49:51;6.30;78.80
9271;DHT22;4673;53.458;9.940;2023-02-02T13:52:41;6.30;79.20
9271;DHT22;4673;53.458;9.940;2023-02-02T14:01:04;6.50;79.90
9271;DHT22;4673;53.458;9.940;2023-02-02T14:03:41;6.60;79.40
9271;DHT22;4673;53.458;9.940;2023-02-02T14:08:57;6.70;78.70
9271;DHT22;4673;53.458;9.940;2023-02-02T14:13:56;6.80;77.90
9271;DHT22;4673;53.458;9.940;2023-02-02T14:16:44;6.70;75.40
9271;DHT22;4673;53.458;9.940;2023-02-02T14:19:45;6.70;74.60
9271;DHT22;4673;53.458;9.940;2023-02-02T14:29:33;6.50;73.10
9271;DHT22;4673;53.458;9.940;2023-02-02T14:34:49;6.30;73.40
9271;DHT22;4673;53.458;9.940;2023-02-02T14:45:41;6.20;73.80
9271;DHT22;4673;53.458;9.940;2023-02-02T14:48:14;6.10;74.50
9271;DHT22;4673;53.458;9.940;2023-02-02T14:50:50;6.10;74.60
9271;DHT22;4673;53.458;9.940;2023-02-02T14:53:37;6.10;74.90
9271;DHT22;4673;53.458;9.940;2023-02-02T14:58:56;6.10;75.00
9271;DHT22;4673;53.458;9.940;2023-02-02T15:01:27;6.10;75.70
9271;DHT22;4673;53.458;9.940;2023-02-02T15:06:36;6.10;76.10
9271;DHT22;4673;53.458;9.940;2023-02-02T15:14:41;6.00;76.40
9271;DHT22;4673;53.458;9.940;2023-02-02T15:20:12;5.90;76.40
9271;DHT22;4673;53.458;9.940;2023-02-02T15:23:04;5.80;76.90
9271;DHT22;4673;53.458;9.940;2023-02-02T15:28:41;5.80;77.60
9271;DHT22;4673;53.458;9.940;2023-02-02T15:31:13;5.70;77.90
9271;DHT22;4673;53.458;9.940;2023-02-02T15:33:44;5.70;78.40
9271;DHT22;4673;53.458;9.940;2023-02-02T15:36:19;5.60;78.70
9271;DHT22;4673;53.458;9.940;2023-02-02T15:38:47;5.60;79.00
9271;DHT22;4673;53.458;9.940;2023-02-02T15:41:33;5.50;79.50
9271;DHT22;4673;53.458;9.940;2023-02-02T15:44:01;5.40;79.70
9271;DHT22;4673;53.458;9.940;2023-02-02T15:46:41;5.40;80.10
9271;DHT22;4673;53.458;9.940;2023-02-02T15:49:25;5.30;80.40
9271;DHT22;4673;53.458;9.940;2023-02-02T15:51:55;5.20;80.90
9271;DHT22;4673;53.458;9.940;2023-02-02T15:54:25;5.10;81.50
9271;DHT22;4673;53.458;9.940;2023-02-02T15:56:52;5.00;81.80
9271;DHT22;4673;53.458;9.940;2023-02-02T15:59:26;4.90;82.50
9271;DHT22;4673;53.458;9.940;2023-02-02T16:04:41;4.80;83.30
9271;DHT22;4673;53.458;9.940;2023-02-02T16:07:19;4.70;83.80
9271;DHT22;4673;53.458;9.940;2023-02-02T16:09:46;4.60;84.30
9271;DHT22;4673;53.458;9.940;2023-02-02T16:12:15;4.60;84.60
9271;DHT22;4673;53.458;9.940;2023-02-02T16:14:50;4.50;85.00
9271;DHT22;4673;53.458;9.940;2023-02-02T16:17:20;4.60;85.50
9271;DHT22;4673;53.458;9.940;2023-02-02T16:19:46;4.40;85.90
9271;DHT22;4673;53.458;9.940;2023-02-02T16:22:19;4.40;86.50
9271;DHT22;4673;53.458;9.940;2023-02-02T16:25:02;4.40;86.90
9271;DHT22;4673;53.458;9.940;2023-02-02T16:27:30;4.30;87.30
9271;DHT22;4673;53.458;9.940;2023-02-02T16:30:00;4.20;87.30
9271;DHT22;4673;53.458;9.940;2023-02-02T16:32:37;4.30;87.70
9271;DHT22;4673;53.458;9.940;2023-02-02T16:35:29;4.20;87.70
9271;DHT22;4673;53.458;9.940;2023-02-02T16:40:42;4.20;88.60
9271;DHT22;4673;53.458;9.940;2023-02-02T16:43:19;4.20;88.90
9271;DHT22;4673;53.458;9.940;2023-02-02T16:46:08;4.10;89.00
9271;DHT22;4673;53.458;9.940;2023-02-02T16:48:39;4.10;89.10
9271;DHT22;4673;53.458;9.940;2023-02-02T16:51:06;4.00;89.20
9271;DHT22;4673;53.458;9.940;2023-02-02T16:53:34;4.00;89.60
9271;DHT22;4673;53.458;9.940;2023-02-02T16:56:01;4.00;90.00
9271;DHT22;4673;53.458;9.940;2023-02-02T16:58:27;4.00;90.50
9271;DHT22;4673;53.458;9.940;2023-02-02T17:00:57;4.00;90.90
9271;DHT22;4673;53.458;9.940;2023-02-02T17:03:30;4.00;90.70
9271;DHT22;4673;53.458;9.940;2023-02-02T17:05:57;3.90;90.60
9271;DHT22;4673;53.458;9.940;2023-02-02T17:08:41;3.90;90.90
9271;DHT22;4673;53.458;9.940;2023-02-02T17:11:25;3.90;91.20
9271;DHT22;4673;53.458;9.940;2023-02-02T17:13:52;3.80;91.40
9271;DHT22;4673;53.458;9.940;2023-02-02T17:16:20;3.80;91.80
9271;DHT22;4673;53.458;9.940;2023-02-02T17:18:47;3.90;92.00
9271;DHT22;4673;53.458;9.940;2023-02-02T17:21:16;3.90;92.00
9271;DHT22;4673;53.458;9.940;2023-02-02T17:23:42;3.90;92.30
9271;DHT22;4673;53.458;9.940;2023-02-02T17:26:10;3.90;92.40
9271;DHT22;4673;53.458;9.940;2023-02-02T17:28:38;3.90;92.40
9271;DHT22;4673;53.458;9.940;2023-02-02T17:31:10;3.90;92.60
9271;DHT22;4673;53.458;9.940;2023-02-02T17:33:37;4.10;92.90
9271;DHT22;4673;53.458;9.940;2023-02-02T17:36:04;3.90;92.80
9271;DHT22;4673;53.458;9.940;2023-02-02T17:38:30;3.90;92.90
9271;DHT22;4673;53.458;9.940;2023-02-02T17:40:59;3.90;93.00
9271;DHT22;4673;53.458;9.940;2023-02-02T17:43:25;3.90;93.30
9271;DHT22;4673;53.458;9.940;2023-02-02T17:45:51;3.90;93.30
9271;DHT22;4673;53.458;9.940;2023-02-02T17:48:17;3.90;93.50
9271;DHT22;4673;53.458;9.940;2023-02-02T17:50:44;3.90;93.70
9271;DHT22;4673;53.458;9.940;2023-02-02T17:53:20;3.90;93.90
9271;DHT22;4673;53.458;9.940;2023-02-02T17:55:46;3.90;94.10
9271;DHT22;4673;53.458;9.940;2023-02-02T17:58:14;4.00;94.10
9271;DHT22;4673;53.458;9.940;2023-02-02T18:00:44;4.00;94.30
9271;DHT22;4673;53.458;9.940;2023-02-02T18:03:42;4.00;94.40
9271;DHT22;4673;53.458;9.940;2023-02-02T18:06:10;4.10;94.60
9271;DHT22;4673;53.458;9.940;2023-02-02T18:08:36;4.10;94.60
9271;DHT22;4673;53.458;9.940;2023-02-02T18:11:01;4.10;94.40
9271;DHT22;4673;53.458;9.940;2023-02-02T18:13:27;4.20;94.40
9271;DHT22;4673;53.458;9.940;2023-02-02T18:15:53;4.20;94.50
9271;DHT22;4673;53.458;9.940;2023-02-02T18:18:23;4.20;94.50
9271;DHT22;4673;53.458;9.940;2023-02-02T18:20:49;4.20;94.60
9271;DHT22;4673;53.458;9.940;2023-02-02T18:23:16;4.20;94.40
9271;DHT22;4673;53.458;9.940;2023-02-02T18:25:42;4.20;94.50
9271;DHT22;4673;53.458;9.940;2023-02-02T18:28:09;4.30;94.80
9271;DHT22;4673;53.458;9.940;2023-02-02T18:30:39;4.30;94.70
9271;DHT22;4673;53.458;9.940;2023-02-02T18:33:10;4.50;94.80
9271;DHT22;4673;53.458;9.940;2023-02-02T18:35:43;4.40;94.70
9271;DHT22;4673;53.458;9.940;2023-02-02T18:38:09;4.40;94.60
9271;DHT22;4673;53.458;9.940;2023-02-02T18:40:37;4.40;94.40
9271;DHT22;4673;53.458;9.940;2023-02-02T18:43:03;4.40;94.50
9271;DHT22;4673;53.458;9.940;2023-02-02T18:45:29;4.40;94.50
9271;DHT22;4673;53.458;9.940;2023-02-02T18:47:55;4.50;94.50
9271;DHT22;4673;53.458;9.940;2023-02-02T18:50:21;4.50;94.40
9271;DHT22;4673;53.458;9.940;2023-02-02T18:52:48;4.50;94.20
9271;DHT22;4673;53.458;9.940;2023-02-02T18:55:14;4.50;94.10
9271;DHT22;4673;53.458;9.940;2023-02-02T18:57:39;4.50;94.10
9271;DHT22;4673;53.458;9.940;2023-02-02T19:00:05;4.50;94.10